Time;durP1;ratioP1;P1;durP2;ratioP2;P2;SDS_P1;SDS_P2;PMS_P1;PMS_P2;Temp;Humidity;BMP_temperature;BMP_pressure;BME280_temperature;BME280_humidity;BME280_pressure;Samples;Min_cycle;Max_cycle;Signal;HPM_P1;HPM_P2
2024/02/29 00:01:10;;;;;;;21.52;2.33;;;5.10;99.90;;;;;;20878599;28;21147;-39
2024/02/29 00:11:15;;;;;;;22.10;3.10;;;4.70;99.90;;;;;;20860707;28;20130;-40
2024/02/29 00:21:16;;;;;;;19.00;1.90;;;5.10;99.90;;;;;;20857467;28;20252;-39
2024/02/29 00:31:18;;;;;;;15.32;1.70;;;5.40;99.90;;;;;;20871934;28;20172;-39
2024/02/29 00:41:20;;;;;;;12.27;1.85;;;5.40;99.90;;;;;;20874063;28;20255;-44
2024/02/29 00:51:22;;;;;;;18.30;1.60;;;5.20;99.90;;;;;;20836951;28;21871;-39
2024/02/29 01:01:24;;;;;;;15.10;1.85;;;5.30;99.90;;;;;;20874194;28;20582;-39
2024/02/29 01:11:25;;;;;;;17.35;2.05;;;5.00;99.90;;;;;;20870023;28;20125;-39
2024/02/29 01:21:27;;;;;;;19.67;1.52;;;4.60;99.90;;;;;;20868347;28;20162;-39
2024/02/29 01:31:31;;;;;;;12.00;2.38;;;4.90;99.90;;;;;;20871517;28;20743;-39
2024/02/29 01:41:33;;;;;;;11.00;1.95;;;5.50;99.90;;;;;;20870646;28;20134;-40
2024/02/29 01:51:35;;;;;;;13.25;1.63;;;5.30;99.90;;;;;;20866624;28;21272;-40
2024/02/29 02:01:37;;;;;;;12.45;1.40;;;5.20;99.90;;;;;;20867996;28;20965;-39
2024/02/29 02:11:39;;;;;;;11.85;1.60;;;5.00;99.90;;;;;;20870331;28;20119;-40
2024/02/29 02:21:42;;;;;;;11.38;1.60;;;5.20;99.90;;;;;;20872957;28;21547;-39
2024/02/29 02:31:44;;;;;;;10.32;1.10;;;5.20;99.90;;;;;;20884218;28;20126;-40
2024/02/29 02:41:49;;;;;;;8.27;1.40;;;5.00;99.90;;;;;;20882651;28;20134;-39
2024/02/29 02:51:51;;;;;;;9.82;1.33;;;5.00;99.90;;;;;;20650248;28;21208;-40
2024/02/29 03:01:53;;;;;;;5.57;1.95;;;4.80;99.90;;;;;;20646564;28;20136;-39
2024/02/29 03:11:54;;;;;;;11.10;1.35;;;4.80;99.90;;;;;;20636484;28;20053;-39
2024/02/29 03:21:56;;;;;;;13.88;1.02;;;4.70;99.90;;;;;;20831381;28;20047;-39
2024/02/29 03:31:58;;;;;;;4.53;1.00;;;4.70;99.90;;;;;;20878741;28;20170;-39
2024/02/29 03:41:59;;;;;;;5.22;1.08;;;4.80;99.90;;;;;;20881162;28;20137;-39
2024/02/29 03:52:02;;;;;;;7.35;1.25;;;5.00;99.90;;;;;;20876725;28;20469;-39
2024/02/29 04:02:04;;;;;;;7.55;1.23;;;5.00;99.90;;;;;;20874958;28;20239;-39
2024/02/29 04:12:06;;;;;;;4.60;0.57;;;5.10;99.90;;;;;;20853704;28;20244;-40
2024/02/29 04:22:09;;;;;;;5.97;1.08;;;5.00;99.90;;;;;;20877233;28;20067;-40
2024/02/29 04:32:11;;;;;;;8.73;1.33;;;5.20;99.90;;;;;;20878501;28;20838;-39
2024/02/29 04:42:13;;;;;;;3.80;0.80;;;5.10;99.90;;;;;;20876039;28;20153;-40
2024/02/29 04:52:15;;;;;;;3.08;0.80;;;5.10;99.90;;;;;;20872094;28;20136;-40
2024/02/29 05:02:17;;;;;;;9.82;0.93;;;5.30;99.90;;;;;;20876667;28;20071;-40
2024/02/29 05:12:19;;;;;;;3.58;0.85;;;5.20;99.90;;;;;;20876242;28;20079;-40
2024/02/29 05:22:21;;;;;;;9.35;0.88;;;5.10;99.90;;;;;;20869056;28;20533;-40
2024/02/29 05:32:23;;;;;;;5.40;0.70;;;5.20;99.90;;;;;;20868348;28;20063;-39
2024/02/29 05:42:26;;;;;;;5.28;0.80;;;5.60;99.90;;;;;;20870491;28;20079;-40
2024/02/29 05:52:28;;;;;;;6.75;0.88;;;5.20;99.90;;;;;;20867520;28;20174;-40
2024/02/29 06:02:30;;;;;;;5.55;0.90;;;5.10;99.90;;;;;;20870699;28;20071;-40
2024/02/29 06:12:32;;;;;;;6.93;0.70;;;5.20;99.90;;;;;;20870238;28;21685;-40
2024/02/29 06:22:35;;;;;;;5.43;1.27;;;5.20;99.90;;;;;;20869039;28;20075;-41
2024/02/29 06:32:40;;;;;;;9.60;2.42;;;5.70;99.90;;;;;;20866383;28;21202;-40
2024/02/29 06:42:42;;;;;;;5.45;0.63;;;5.80;99.90;;;;;;20866508;28;20075;-40
2024/02/29 06:52:43;;;;;;;7.45;1.00;;;5.90;99.90;;;;;;20864889;28;21348;-39
2024/02/29 07:02:45;;;;;;;6.10;1.10;;;5.70;99.90;;;;;;20860775;28;20168;-40
2024/02/29 07:12:47;;;;;;;8.18;0.98;;;5.60;99.90;;;;;;20878035;28;20075;-42
2024/02/29 07:22:49;;;;;;;5.20;0.85;;;5.20;99.90;;;;;;20880736;28;20201;-40
2024/02/29 07:32:51;;;;;;;5.50;1.00;;;5.20;99.90;;;;;;20875412;28;20720;-40
2024/02/29 07:42:52;;;;;;;8.48;1.38;;;5.70;99.90;;;;;;20876062;28;20134;-40
2024/02/29 07:52:54;;;;;;;7.68;0.88;;;6.50;99.90;;;;;;20873806;28;20193;-40
2024/02/29 08:02:56;;;;;;;7.63;1.27;;;7.60;99.90;;;;;;20877886;28;20070;-40
2024/02/29 08:12:58;;;;;;;8.52;1.17;;;8.40;99.90;;;;;;20873039;28;20087;-41
2024/02/29 08:23:00;;;;;;;6.65;0.82;;;8.40;99.90;;;;;;20875151;28;20154;-41
2024/02/29 08:33:02;;;;;;;3.33;1.10;;;8.80;99.90;;;;;;20872705;28;20166;-41
2024/02/29 08:43:04;;;;;;;6.65;0.80;;;8.50;99.90;;;;;;20874000;28;21193;-40
2024/02/29 08:53:06;;;;;;;6.60;1.45;;;7.90;99.90;;;;;;20850415;28;20185;-41
2024/02/29 09:03:09;;;;;;;8.15;1.02;;;7.50;99.90;;;;;;20869587;28;20080;-40
2024/02/29 09:13:10;;;;;;;8.50;0.70;;;8.00;99.90;;;;;;20870817;28;21205;-41
2024/02/29 09:23:15;;;;;;;6.15;0.77;;;8.90;99.90;;;;;;20870086;28;20174;-40
2024/02/29 09:33:17;;;;;;;12.25;1.13;;;8.70;99.90;;;;;;20869495;28;20990;-40
2024/02/29 09:43:19;;;;;;;10.82;1.55;;;8.40;99.90;;;;;;20868742;28;20163;-41
2024/02/29 09:53:21;;;;;;;14.27;1.45;;;9.00;99.90;;;;;;20866690;28;21227;-39
2024/02/29 10:03:24;;;;;;;13.82;1.45;;;8.60;99.90;;;;;;20847416;28;20185;-41
2024/02/29 10:13:39;;;;;;;9.75;1.30;;;8.40;99.90;;;;;;20865386;28;20124;-42
2024/02/29 10:23:43;;;;;;;6.55;1.20;;;8.30;99.90;;;;;;20846994;28;21152;-40
2024/02/29 10:33:48;;;;;;;13.52;1.35;;;8.30;99.90;;;;;;20867452;28;20235;-41
2024/02/29 10:43:50;;;;;;;10.40;1.20;;;9.40;99.90;;;;;;20870505;28;20159;-42
2024/02/29 10:54:21;;;;;;;10.05;1.58;;;10.70;99.90;;;;;;20882238;28;20083;-42
2024/02/29 11:04:23;;;;;;;9.68;1.80;;;11.70;99.90;;;;;;20879630;28;20119;-42
2024/02/29 11:14:31;;;;;;;14.80;1.95;;;11.10;99.90;;;;;;20879568;28;20232;-45
2024/02/29 11:24:35;;;;;;;12.38;1.30;;;11.10;99.90;;;;;;20856274;28;20169;-41
2024/02/29 11:34:37;;;;;;;16.55;2.53;;;10.80;99.90;;;;;;20879150;28;20551;-40
2024/02/29 11:44:46;;;;;;;16.20;1.60;;;10.10;99.90;;;;;;20879776;28;21576;-40
2024/02/29 11:54:49;;;;;;;12.18;1.48;;;9.00;99.90;;;;;;20873338;28;20166;-40
2024/02/29 12:04:51;;;;;;;10.18;1.67;;;8.60;99.90;;;;;;20875034;28;20192;-39
2024/02/29 12:14:54;;;;;;;17.30;1.55;;;8.00;99.90;;;;;;20872651;28;20126;-40
2024/02/29 12:24:57;;;;;;;14.05;1.38;;;7.70;99.90;;;;;;20855159;28;20120;-39
2024/02/29 12:35:04;;;;;;;15.05;1.77;;;7.60;99.90;;;;;;20874826;28;21117;-43
2024/02/29 12:45:08;;;;;;;13.32;2.92;;;8.60;99.90;;;;;;20872982;28;20704;-39
2024/02/29 12:55:10;;;;;;;9.80;1.85;;;8.30;99.90;;;;;;20871042;28;20043;-40
2024/02/29 13:05:13;;;;;;;14.07;1.42;;;8.10;99.90;;;;;;20871253;28;20552;-40
2024/02/29 13:15:15;;;;;;;10.63;1.58;;;8.00;99.90;;;;;;20869849;28;21240;-40
2024/02/29 13:25:17;;;;;;;15.98;1.52;;;7.70;99.90;;;;;;20871373;28;20265;-39
2024/02/29 13:35:18;;;;;;;10.35;1.67;;;6.80;99.90;;;;;;20867313;28;20146;-40
2024/02/29 13:45:20;;;;;;;11.95;1.58;;;6.00;99.90;;;;;;20865031;28;20142;-42
2024/02/29 13:55:22;;;;;;;12.15;1.90;;;5.60;99.90;;;;;;20865699;28;21284;-39
2024/02/29 14:05:26;;;;;;;12.40;1.83;;;5.40;99.90;;;;;;20867153;28;21161;-40
2024/02/29 14:15:30;;;;;;;14.25;2.25;;;5.90;99.90;;;;;;20862887;28;21099;-40
2024/02/29 14:25:32;;;;;;;12.10;1.65;;;6.10;99.90;;;;;;20863553;28;20122;-40
2024/02/29 14:35:35;;;;;;;13.10;1.88;;;6.10;99.90;;;;;;20865897;28;20174;-40
2024/02/29 14:45:37;;;;;;;10.05;1.85;;;6.40;99.90;;;;;;20867227;28;20174;-41
2024/02/29 14:55:41;;;;;;;22.02;4.90;;;6.50;99.90;;;;;;20829353;28;20164;-40
2024/02/29 15:05:43;;;;;;;15.13;2.00;;;6.10;99.90;;;;;;20842155;28;20146;-40
2024/02/29 15:15:45;;;;;;;7.28;1.38;;;5.70;99.90;;;;;;20829820;28;20123;-40
2024/02/29 15:25:47;;;;;;;8.23;1.30;;;5.60;99.90;;;;;;20861196;28;20123;-41
2024/02/29 15:35:49;;;;;;;8.52;1.25;;;5.60;99.90;;;;;;20872624;28;20127;-40
2024/02/29 15:45:52;;;;;;;3.78;0.95;;;5.60;99.90;;;;;;20871064;28;20138;-40
2024/02/29 15:55:54;;;;;;;6.32;1.10;;;5.30;99.90;;;;;;20857401;28;20158;-39
2024/02/29 16:05:56;;;;;;;8.02;1.65;;;5.10;99.90;;;;;;20875876;28;21138;-41
2024/02/29 16:16:02;;;;;;;8.68;1.45;;;5.10;99.90;;;;;;20871982;28;20118;-39
2024/02/29 16:26:05;;;;;;;11.63;2.40;;;5.00;99.90;;;;;;20869204;28;20118;-39
2024/02/29 16:36:07;;;;;;;6.50;1.50;;;4.90;99.90;;;;;;20871959;28;21964;-39
2024/02/29 16:46:08;;;;;;;8.73;1.70;;;5.20;99.90;;;;;;20875781;28;20132;-40
2024/02/29 16:56:10;;;;;;;2.35;0.77;;;5.00;99.90;;;;;;20852129;28;20124;-41
2024/02/29 17:06:17;;;;;;;8.18;1.20;;;4.90;99.90;;;;;;20852352;28;20075;-39
2024/02/29 17:16:19;;;;;;;11.25;2.13;;;4.80;99.90;;;;;;20869053;28;20679;-39
2024/02/29 17:26:21;;;;;;;10.13;1.85;;;4.70;99.90;;;;;;20874494;28;21513;-40
2024/02/29 17:36:24;;;;;;;13.27;1.73;;;4.90;99.90;;;;;;20872989;28;20749;-41
2024/02/29 17:46:26;;;;;;;7.95;2.13;;;4.40;99.90;;;;;;20870847;28;20071;-41
2024/02/29 17:56:28;;;;;;;18.70;2.63;;;4.00;99.90;;;;;;20870241;28;20060;-40
2024/02/29 18:06:31;;;;;;;6.85;2.03;;;3.80;99.90;;;;;;20870165;28;21022;-40
2024/02/29 18:16:33;;;;;;;13.45;2.50;;;4.00;99.90;;;;;;20871230;28;20063;-41
2024/02/29 18:26:35;;;;;;;12.40;2.30;;;3.70;99.90;;;;;;20870366;28;20191;-40
2024/02/29 18:36:38;;;;;;;9.30;2.38;;;3.70;99.90;;;;;;20867995;28;20909;-39
2024/02/29 18:46:41;;;;;;;14.95;2.35;;;3.50;99.90;;;;;;20868774;28;20784;-41
2024/02/29 18:56:43;;;;;;;11.38;2.60;;;3.70;99.90;;;;;;20866545;28;20141;-40
2024/02/29 19:06:48;;;;;;;9.55;2.00;;;3.50;99.90;;;;;;20872920;28;20259;-39
2024/02/29 19:16:52;;;;;;;13.70;2.85;;;3.50;99.90;;;;;;20882307;28;21229;-40
2024/02/29 19:26:54;;;;;;;14.00;3.00;;;3.40;99.90;;;;;;20703590;28;20991;-40
2024/02/29 19:36:55;;;;;;;11.30;2.85;;;3.60;99.90;;;;;;20746510;28;21309;-42
2024/02/29 19:46:57;;;;;;;11.82;2.97;;;3.70;99.90;;;;;;20705609;28;20135;-41
2024/02/29 19:56:59;;;;;;;10.20;2.75;;;3.80;99.90;;;;;;20715403;28;20139;-43
2024/02/29 20:07:01;;;;;;;8.55;2.72;;;3.80;99.90;;;;;;20794138;28;20170;-40
2024/02/29 20:17:03;;;;;;;7.93;2.40;;;3.90;99.90;;;;;;20795381;28;20060;-40
2024/02/29 20:27:08;;;;;;;6.90;2.33;;;4.00;99.90;;;;;;20796691;28;21263;-40
2024/02/29 20:37:10;;;;;;;11.27;2.35;;;3.70;99.90;;;;;;20794881;28;21211;-42
2024/02/29 20:47:12;;;;;;;7.10;1.83;;;3.60;99.90;;;;;;20874540;28;21143;-41
2024/02/29 20:57:15;;;;;;;9.23;1.88;;;4.00;99.90;;;;;;20875899;28;20770;-40
2024/02/29 21:07:20;;;;;;;7.60;1.88;;;4.10;99.90;;;;;;20875964;28;20944;-40
2024/02/29 21:17:21;;;;;;;11.60;2.03;;;4.20;99.90;;;;;;20873450;28;20079;-40
2024/02/29 21:27:23;;;;;;;13.77;2.40;;;4.00;99.90;;;;;;20852425;28;20158;-41
2024/02/29 21:37:28;;;;;;;12.90;2.53;;;3.70;99.90;;;;;;20688850;28;21171;-41
2024/02/29 21:47:30;;;;;;;11.75;2.45;;;3.60;99.90;;;;;;20667910;28;20090;-41
2024/02/29 21:57:32;;;;;;;14.73;2.50;;;3.60;99.90;;;;;;20654748;28;20056;-41
2024/02/29 22:07:34;;;;;;;12.27;3.30;;;3.60;99.90;;;;;;20828359;28;20264;-41
2024/02/29 22:17:36;;;;;;;15.00;3.17;;;3.80;99.90;;;;;;20870797;28;20236;-42
2024/02/29 22:27:38;;;;;;;14.55;3.05;;;4.10;99.90;;;;;;20847405;28;20130;-41
2024/02/29 22:37:40;;;;;;;13.43;2.45;;;4.30;99.90;;;;;;20872140;28;20154;-41
2024/02/29 22:47:45;;;;;;;9.00;2.10;;;4.50;99.90;;;;;;20884532;28;20256;-41
2024/02/29 22:57:47;;;;;;;5.32;1.90;;;4.30;99.90;;;;;;20865641;28;20127;-41
2024/02/29 23:07:52;;;;;;;11.73;1.77;;;4.20;99.90;;;;;;20849842;28;21220;-41
2024/02/29 23:17:55;;;;;;;8.10;2.08;;;4.00;99.90;;;;;;20863648;28;20101;-41
2024/02/29 23:27:57;;;;;;;8.32;2.28;;;4.30;99.90;;;;;;20879069;28;20115;-43
2024/02/29 23:37:59;;;;;;;6.63;1.60;;;4.40;99.90;;;;;;20882081;28;20078;-41
2024/02/29 23:48:01;;;;;;;7.65;1.63;;;4.10;99.90;;;;;;20876180;28;20302;-43
2024/02/29 23:58:03;;;;;;;5.15;1.58;;;3.80;99.90;;;;;;20878008;28;20813;-41
